Time;durP1;ratioP1;P1;durP2;ratioP2;P2;SDS_P1;SDS_P2;PMS_P1;PMS_P2;Temp;Humidity;BMP_temperature;BMP_pressure;BME280_temperature;BME280_humidity;BME280_pressure;Samples;Min_cycle;Max_cycle;Signal;HPM_P1;HPM_P2
2023/01/03 00:00:43;;;;;;;47.35;18.20;;;3.10;99.90;;;;;;4988292;28;20041;-66
2023/01/03 00:03:11;;;;;;;51.88;18.90;;;3.10;99.90;;;;;;4988529;28;20073;-67
2023/01/03 00:05:36;;;;;;;49.35;17.00;;;3.00;99.90;;;;;;4989330;28;20034;-67
2023/01/03 00:08:02;;;;;;;47.67;18.33;;;3.00;99.90;;;;;;4990826;28;20038;-67
2023/01/03 00:10:28;;;;;;;52.42;18.23;;;3.10;99.90;;;;;;4989783;28;20077;-67
2023/01/03 00:12:55;;;;;;;48.83;18.15;;;2.90;99.90;;;;;;4984003;28;20645;-67
2023/01/03 00:15:21;;;;;;;51.22;18.00;;;3.00;99.90;;;;;;4985064;28;20050;-67
2023/01/03 00:17:47;;;;;;;51.90;17.98;;;2.90;99.90;;;;;;4985903;28;20049;-66
2023/01/03 00:20:12;;;;;;;49.58;19.15;;;2.80;99.90;;;;;;4984492;28;20052;-66
2023/01/03 00:22:38;;;;;;;55.38;19.02;;;3.00;99.90;;;;;;4983053;28;20038;-67
2023/01/03 00:25:04;;;;;;;58.35;20.27;;;2.90;99.90;;;;;;4983957;28;20453;-67
2023/01/03 00:27:29;;;;;;;54.35;20.27;;;2.90;99.90;;;;;;4983673;28;20080;-68
2023/01/03 00:29:55;;;;;;;62.03;20.45;;;3.00;99.90;;;;;;4983916;28;20117;-67
2023/01/03 00:32:21;;;;;;;58.15;19.52;;;2.90;99.90;;;;;;4986969;28;20107;-67
2023/01/03 00:34:46;;;;;;;62.28;20.42;;;3.00;99.90;;;;;;4986320;28;20535;-67
2023/01/03 00:37:13;;;;;;;57.95;19.35;;;2.80;99.90;;;;;;4989502;28;20053;-67
2023/01/03 00:39:39;;;;;;;51.92;18.85;;;2.90;99.90;;;;;;4985362;28;20052;-67
2023/01/03 00:42:06;;;;;;;50.53;18.13;;;2.90;99.90;;;;;;4970356;28;20377;-67
2023/01/03 00:44:32;;;;;;;57.85;19.92;;;2.90;99.90;;;;;;4978894;28;20034;-66
2023/01/03 00:46:58;;;;;;;56.08;18.88;;;2.80;99.90;;;;;;4983417;28;20038;-67
2023/01/03 00:49:23;;;;;;;55.53;19.65;;;2.80;99.90;;;;;;4982501;28;20390;-67
2023/01/03 00:51:49;;;;;;;50.97;19.55;;;2.80;99.90;;;;;;4984401;28;20128;-67
2023/01/03 00:54:15;;;;;;;58.05;20.30;;;2.80;99.90;;;;;;4984930;28;20480;-66
2023/01/03 00:56:46;;;;;;;50.70;19.02;;;2.80;99.90;;;;;;4984003;28;20038;-67
2023/01/03 00:59:13;;;;;;;51.60;18.60;;;2.80;99.90;;;;;;4977779;28;20164;-67
2023/01/03 01:01:45;;;;;;;55.63;19.45;;;2.90;99.90;;;;;;4984455;28;20045;-66
2023/01/03 01:04:19;;;;;;;49.08;19.15;;;2.80;99.90;;;;;;4984542;28;20042;-67
2023/01/03 01:06:50;;;;;;;52.28;19.45;;;2.70;99.90;;;;;;4982005;28;20080;-67
2023/01/03 01:09:19;;;;;;;58.40;19.73;;;2.80;99.90;;;;;;4983467;28;20623;-66
2023/01/03 01:11:45;;;;;;;61.03;20.42;;;2.70;99.90;;;;;;4982886;28;20046;-67
2023/01/03 01:14:20;;;;;;;55.05;19.15;;;2.70;99.90;;;;;;4984441;28;20042;-67
2023/01/03 01:16:55;;;;;;;59.08;20.38;;;2.70;99.90;;;;;;4997474;28;20080;-67
2023/01/03 01:19:25;;;;;;;54.50;19.67;;;2.70;99.90;;;;;;4998882;28;20069;-67
2023/01/03 01:21:51;;;;;;;59.92;19.90;;;2.50;99.90;;;;;;4985258;28;20046;-67
2023/01/03 01:24:17;;;;;;;59.72;20.42;;;2.50;99.90;;;;;;4982638;28;20085;-67
2023/01/03 01:26:43;;;;;;;57.63;20.27;;;2.50;99.90;;;;;;4985334;28;20133;-67
2023/01/03 01:29:11;;;;;;;61.83;20.98;;;2.60;99.90;;;;;;4984664;28;20132;-66
2023/01/03 01:31:37;;;;;;;65.20;20.95;;;2.70;99.90;;;;;;4981506;28;20104;-67
2023/01/03 01:34:02;;;;;;;67.25;21.95;;;2.50;99.90;;;;;;4982437;28;20129;-66
2023/01/03 01:36:32;;;;;;;60.75;21.20;;;2.60;99.90;;;;;;4986414;28;20128;-66
2023/01/03 01:39:00;;;;;;;61.47;21.13;;;2.60;99.90;;;;;;4985207;28;20077;-67
2023/01/03 01:44:51;;;;;;;59.38;20.13;;;2.50;99.90;;;;;;4988301;28;20052;-67
2023/01/03 01:47:25;;;;;;;59.63;20.92;;;2.60;99.90;;;;;;5003142;28;20343;-67
2023/01/03 01:50:10;;;;;;;66.18;21.75;;;2.50;99.90;;;;;;4986277;28;20069;-67
2023/01/03 01:52:40;;;;;;;73.53;23.38;;;2.60;99.90;;;;;;4977877;28;20060;-67
2023/01/03 01:55:11;;;;;;;67.78;22.83;;;2.40;99.90;;;;;;4985896;28;20477;-67
2023/01/03 01:57:38;;;;;;;85.05;25.27;;;2.50;99.90;;;;;;4984383;28;20058;-67
2023/01/03 02:00:06;;;;;;;65.25;23.25;;;2.50;99.90;;;;;;4984931;28;21424;-67
2023/01/03 02:02:32;;;;;;;78.03;24.83;;;2.60;99.90;;;;;;4985942;28;20038;-66
2023/01/03 02:04:59;;;;;;;75.65;24.60;;;2.50;99.90;;;;;;4986279;28;20049;-67
2023/01/03 02:07:25;;;;;;;79.28;23.85;;;2.70;99.90;;;;;;5006021;28;20042;-67
2023/01/03 02:09:54;;;;;;;76.15;24.33;;;2.60;99.90;;;;;;5001869;28;20042;-67
2023/01/03 02:15:28;;;;;;;80.43;25.85;;;2.60;99.90;;;;;;4982991;28;20050;-67
2023/01/03 02:18:22;;;;;;;72.57;25.33;;;2.50;99.90;;;;;;4985388;28;20807;-67
2023/01/03 02:21:06;;;;;;;91.45;27.13;;;2.70;99.90;;;;;;4984045;28;20504;-67
2023/01/03 02:24:08;;;;;;;96.63;26.88;;;2.60;99.90;;;;;;4987455;28;20049;-67
2023/01/03 02:26:59;;;;;;;94.18;26.60;;;2.70;99.90;;;;;;4988376;28;20048;-66
2023/01/03 02:30:03;;;;;;;111.95;28.58;;;2.60;99.90;;;;;;4985499;28;20041;-68
2023/01/03 02:32:42;;;;;;;105.80;28.80;;;2.60;99.90;;;;;;4986298;28;20109;-67
2023/01/03 02:35:31;;;;;;;108.90;28.88;;;2.70;99.90;;;;;;4982770;28;20084;-67
2023/01/03 02:38:15;;;;;;;88.65;27.85;;;2.70;99.90;;;;;;4985199;28;20132;-67
2023/01/03 02:40:56;;;;;;;94.57;28.58;;;2.60;99.90;;;;;;4981614;28;20049;-66
2023/01/03 02:43:31;;;;;;;104.25;30.63;;;2.70;99.90;;;;;;4970563;28;20072;-68
2023/01/03 02:46:18;;;;;;;99.63;30.10;;;2.70;99.90;;;;;;4987648;28;20045;-67
2023/01/03 02:49:03;;;;;;;106.68;30.42;;;2.60;99.90;;;;;;5002884;28;20431;-68
2023/01/03 02:51:40;;;;;;;110.13;31.98;;;2.70;99.90;;;;;;5003868;28;20110;-67
2023/01/03 02:54:10;;;;;;;100.63;30.77;;;2.70;99.90;;;;;;4992375;28;21474;-68
2023/01/03 02:56:56;;;;;;;96.47;29.27;;;2.50;99.90;;;;;;5006552;28;20396;-67
2023/01/03 02:59:47;;;;;;;94.95;31.10;;;2.70;99.90;;;;;;4991487;28;20042;-67
2023/01/03 03:02:16;;;;;;;109.50;31.50;;;2.70;99.90;;;;;;4984807;28;20488;-67
2023/01/03 03:04:44;;;;;;;102.13;30.48;;;2.70;99.90;;;;;;4984397;28;20042;-68
2023/01/03 03:07:25;;;;;;;104.50;30.25;;;2.70;99.90;;;;;;4986001;28;20768;-67
2023/01/03 03:15:33;;;;;;;106.20;30.70;;;2.70;99.90;;;;;;5000257;28;20053;-67
2023/01/03 03:18:04;;;;;;;115.28;30.83;;;2.60;99.90;;;;;;4987610;28;20056;-68
2023/01/03 03:26:27;;;;;;;108.50;30.08;;;2.60;99.90;;;;;;4983114;28;20765;-67
2023/01/03 03:28:58;;;;;;;102.22;29.55;;;2.60;99.90;;;;;;4988929;28;20096;-67
2023/01/03 03:31:48;;;;;;;101.55;29.65;;;2.50;99.90;;;;;;5002972;28;20486;-67
2023/01/03 03:34:37;;;;;;;111.80;29.48;;;2.50;99.90;;;;;;4985613;28;20156;-67
2023/01/03 03:37:15;;;;;;;101.18;29.75;;;2.50;99.90;;;;;;4988844;28;20048;-66
2023/01/03 03:45:44;;;;;;;91.75;26.85;;;2.50;99.90;;;;;;5002704;28;20049;-67
2023/01/03 03:48:21;;;;;;;95.68;28.33;;;2.50;99.90;;;;;;4985943;28;20366;-66
2023/01/03 03:50:53;;;;;;;101.68;29.63;;;2.30;99.90;;;;;;4985370;28;20068;-67
2023/01/03 03:53:24;;;;;;;96.40;28.83;;;2.40;99.90;;;;;;4971836;28;20120;-67
2023/01/03 03:55:58;;;;;;;104.88;29.10;;;2.40;99.90;;;;;;4985662;28;20088;-66
2023/01/03 03:58:32;;;;;;;94.53;27.88;;;2.40;99.90;;;;;;5005725;28;20050;-67
2023/01/03 04:00:59;;;;;;;99.35;28.65;;;2.20;99.90;;;;;;4987664;28;20088;-66
2023/01/03 04:03:27;;;;;;;98.93;30.30;;;2.20;99.90;;;;;;5005003;28;20065;-67
2023/01/03 04:06:03;;;;;;;97.97;30.23;;;2.30;99.90;;;;;;4989238;28;20049;-66
2023/01/03 04:08:28;;;;;;;97.63;30.05;;;2.30;99.90;;;;;;4987459;28;20140;-67
2023/01/03 04:11:04;;;;;;;106.50;29.85;;;2.20;99.90;;;;;;4987641;28;20128;-67
2023/01/03 04:13:34;;;;;;;107.53;29.30;;;2.30;99.90;;;;;;4970249;28;20440;-67
2023/01/03 04:16:00;;;;;;;92.70;28.95;;;2.20;99.90;;;;;;4986585;28;20053;-67
2023/01/03 04:18:25;;;;;;;106.38;31.13;;;2.20;99.90;;;;;;4987075;28;20097;-66
2023/01/03 04:20:51;;;;;;;116.43;30.88;;;2.10;99.90;;;;;;4988497;28;20037;-67
2023/01/03 04:23:16;;;;;;;99.07;29.80;;;2.20;99.90;;;;;;4987255;28;20115;-66
2023/01/03 04:25:42;;;;;;;99.95;29.75;;;2.10;99.90;;;;;;4986217;28;20069;-67
2023/01/03 04:28:08;;;;;;;95.50;29.27;;;2.10;99.90;;;;;;4988821;28;20988;-67
2023/01/03 04:30:34;;;;;;;94.22;29.15;;;2.20;99.90;;;;;;5003200;28;20042;-66
2023/01/03 04:33:03;;;;;;;85.53;27.83;;;2.20;99.90;;;;;;5002828;28;20026;-66
2023/01/03 04:35:30;;;;;;;90.93;28.58;;;2.20;99.90;;;;;;4988644;28;20046;-67
2023/01/03 04:37:56;;;;;;;100.40;28.73;;;2.10;99.90;;;;;;4982277;28;20069;-67
2023/01/03 04:40:21;;;;;;;93.60;28.48;;;2.10;99.90;;;;;;4988882;28;20055;-67
2023/01/03 04:45:31;;;;;;;96.97;29.17;;;2.10;99.90;;;;;;4986014;28;20427;-67
2023/01/03 04:47:57;;;;;;;87.30;28.25;;;2.10;99.90;;;;;;5003347;28;20038;-67
2023/01/03 04:50:22;;;;;;;90.80;28.95;;;2.00;99.90;;;;;;4987613;28;20092;-67
2023/01/03 04:52:48;;;;;;;90.47;27.02;;;2.00;99.90;;;;;;5002016;28;20477;-67
2023/01/03 04:55:13;;;;;;;89.78;27.55;;;2.00;99.90;;;;;;4989071;28;20167;-67
2023/01/03 04:57:39;;;;;;;103.13;28.40;;;1.90;99.90;;;;;;5002927;28;20088;-67
2023/01/03 05:00:05;;;;;;;84.85;27.08;;;2.00;99.90;;;;;;4986007;28;20452;-67
2023/01/03 05:02:31;;;;;;;83.65;26.95;;;1.90;99.90;;;;;;4976850;28;20400;-67
2023/01/03 05:04:56;;;;;;;87.40;27.92;;;1.90;99.90;;;;;;4987068;28;20042;-67
2023/01/03 05:07:22;;;;;;;89.82;26.17;;;1.90;99.90;;;;;;4987153;28;20121;-67
2023/01/03 05:09:47;;;;;;;78.03;26.40;;;2.00;99.90;;;;;;4986534;28;20038;-67
2023/01/03 05:12:13;;;;;;;91.30;27.65;;;1.90;99.90;;;;;;4983686;28;20044;-67
2023/01/03 05:14:41;;;;;;;85.18;26.02;;;1.80;99.90;;;;;;4986867;28;20562;-67
2023/01/03 05:17:07;;;;;;;78.07;25.85;;;1.90;99.90;;;;;;4986585;28;20088;-67
2023/01/03 05:19:33;;;;;;;86.55;26.42;;;1.90;99.90;;;;;;4984277;28;20820;-67
2023/01/03 05:25:48;;;;;;;79.25;26.70;;;1.70;99.90;;;;;;4986314;28;20140;-67
2023/01/03 05:27:47;;;;;;;72.90;24.45;;;1.80;99.90;;;;;;4987643;28;20107;-67
2023/01/03 05:30:12;;;;;;;72.50;25.08;;;1.80;99.90;;;;;;4987353;28;20061;-67
2023/01/03 05:32:38;;;;;;;78.28;26.40;;;1.70;99.90;;;;;;4984145;28;20099;-67
2023/01/03 05:35:04;;;;;;;78.78;26.00;;;1.80;99.90;;;;;;4970963;28;20045;-67
2023/01/03 05:37:29;;;;;;;67.43;24.55;;;1.80;99.90;;;;;;4987832;28;20038;-67
2023/01/03 05:39:55;;;;;;;73.25;24.90;;;1.60;99.90;;;;;;4988223;28;20379;-68
2023/01/03 05:42:20;;;;;;;85.65;26.33;;;1.70;99.90;;;;;;4986046;28;20041;-67
2023/01/03 05:44:46;;;;;;;76.75;24.85;;;1.70;99.90;;;;;;4986791;28;20501;-67
2023/01/03 05:47:11;;;;;;;76.22;24.80;;;1.60;99.90;;;;;;4986842;28;20452;-67
2023/01/03 05:49:37;;;;;;;84.70;26.05;;;1.70;99.90;;;;;;4983426;28;20042;-67
2023/01/03 05:52:03;;;;;;;89.07;27.17;;;1.70;99.90;;;;;;4982040;28;20077;-66
2023/01/03 05:54:28;;;;;;;99.50;27.38;;;1.70;99.90;;;;;;4985960;28;20034;-67
2023/01/03 05:56:54;;;;;;;96.18;27.35;;;1.60;99.90;;;;;;4990721;28;20135;-67
2023/01/03 05:59:21;;;;;;;105.50;29.88;;;1.60;99.90;;;;;;4992119;28;20085;-67
2023/01/03 06:01:47;;;;;;;86.22;27.60;;;1.40;99.90;;;;;;4986975;28;20050;-67
2023/01/03 06:04:12;;;;;;;87.22;29.13;;;1.40;99.90;;;;;;4989898;28;20045;-67
2023/01/03 06:06:38;;;;;;;108.18;29.65;;;1.40;99.90;;;;;;4990523;28;20072;-67
2023/01/03 06:09:04;;;;;;;88.68;27.92;;;1.40;99.90;;;;;;4991565;28;20053;-67
2023/01/03 06:11:29;;;;;;;100.32;31.05;;;1.50;99.90;;;;;;4985271;28;20508;-67
2023/01/03 06:13:55;;;;;;;95.47;30.40;;;1.40;99.90;;;;;;4992915;28;20046;-67
2023/01/03 06:19:07;;;;;;;96.78;31.63;;;1.40;99.90;;;;;;4984980;28;20080;-67
2023/01/03 06:21:33;;;;;;;89.82;30.80;;;1.20;99.90;;;;;;5005576;28;20046;-68
2023/01/03 06:23:59;;;;;;;96.18;31.25;;;1.40;99.90;;;;;;4991114;28;20485;-67
2023/01/03 06:26:25;;;;;;;100.70;33.15;;;1.30;99.90;;;;;;5004414;28;20069;-67
2023/01/03 06:28:51;;;;;;;109.75;34.80;;;1.30;99.90;;;;;;4987314;28;20052;-67
2023/01/03 06:31:17;;;;;;;112.60;33.67;;;1.10;99.90;;;;;;4989538;28;20057;-67
2023/01/03 06:33:43;;;;;;;98.35;33.15;;;1.10;99.90;;;;;;4988610;28;20056;-67
2023/01/03 06:36:13;;;;;;;93.60;34.20;;;1.20;99.90;;;;;;4981688;28;20575;-68
2023/01/03 06:38:39;;;;;;;100.35;33.05;;;1.10;99.90;;;;;;4989172;28;20050;-67
2023/01/03 06:41:05;;;;;;;111.65;36.03;;;1.10;99.90;;;;;;4987597;28;20052;-66
2023/01/03 06:43:31;;;;;;;127.38;36.95;;;1.20;99.90;;;;;;4989601;28;20112;-67
2023/01/03 06:54:23;;;;;;;185.23;37.08;;;1.40;99.90;;;;;;5003080;28;20091;-67
2023/01/03 06:56:50;;;;;;;130.10;34.58;;;1.40;99.90;;;;;;4987798;28;20049;-67
2023/01/03 06:59:16;;;;;;;108.47;33.10;;;1.60;99.90;;;;;;4985710;28;20037;-67
2023/01/03 07:01:46;;;;;;;109.28;31.45;;;1.60;99.90;;;;;;4987863;28;20129;-67
2023/01/03 07:04:12;;;;;;;114.57;31.23;;;1.60;99.90;;;;;;4987372;28;20042;-66
2023/01/03 07:06:39;;;;;;;122.07;31.05;;;1.70;99.90;;;;;;4985853;28;20042;-67
2023/01/03 07:09:05;;;;;;;119.40;29.50;;;1.70;99.90;;;;;;4986999;28;20029;-67
2023/01/03 07:11:31;;;;;;;155.18;31.88;;;1.80;99.90;;;;;;4984390;28;20149;-67
2023/01/03 07:13:57;;;;;;;138.73;29.38;;;1.80;99.90;;;;;;4988787;28;20120;-66
2023/01/03 07:16:26;;;;;;;110.63;26.60;;;1.90;99.90;;;;;;4991110;28;20046;-67
2023/01/03 07:18:52;;;;;;;99.32;25.15;;;2.00;99.90;;;;;;4989096;28;20390;-67
2023/01/03 07:21:18;;;;;;;99.13;25.73;;;2.00;99.90;;;;;;4977158;28;20044;-67
2023/01/03 07:23:44;;;;;;;93.45;25.45;;;2.10;99.90;;;;;;4985638;28;20100;-67
2023/01/03 07:26:10;;;;;;;251.25;32.72;;;2.10;99.90;;;;;;4990398;28;20041;-67
2023/01/03 07:28:35;;;;;;;216.05;30.90;;;2.00;99.90;;;;;;4986204;28;20220;-67
2023/01/03 07:31:03;;;;;;;92.63;24.90;;;2.10;99.90;;;;;;4984106;28;20037;-67
2023/01/03 07:33:29;;;;;;;148.43;27.50;;;2.20;99.90;;;;;;4986062;28;20468;-67
2023/01/03 07:36:00;;;;;;;97.28;24.67;;;2.30;99.90;;;;;;5002180;28;20048;-67
2023/01/03 07:38:26;;;;;;;100.32;25.77;;;2.20;99.90;;;;;;4985345;28;20072;-67
2023/01/03 07:40:54;;;;;;;107.38;26.05;;;2.30;99.90;;;;;;4986377;28;20042;-67
2023/01/03 07:43:38;;;;;;;145.88;27.30;;;2.30;99.90;;;;;;5000722;28;20103;-67
2023/01/03 07:46:19;;;;;;;145.43;28.98;;;2.30;99.90;;;;;;4984642;28;20050;-67
2023/01/03 07:48:47;;;;;;;248.43;33.80;;;2.40;99.90;;;;;;5000440;28;20492;-67
2023/01/03 07:51:14;;;;;;;381.90;40.28;;;2.60;99.90;;;;;;5009563;28;20037;-67
2023/01/03 07:53:41;;;;;;;127.45;30.08;;;2.60;99.90;;;;;;4993065;28;20052;-67
2023/01/03 07:56:10;;;;;;;160.70;32.25;;;2.60;99.90;;;;;;4987467;28;20133;-67
2023/01/03 07:58:36;;;;;;;142.27;32.20;;;2.70;99.90;;;;;;5010575;28;20165;-67
2023/01/03 08:01:29;;;;;;;136.35;32.28;;;2.70;99.90;;;;;;4990616;28;20066;-67
2023/01/03 08:03:54;;;;;;;260.02;38.00;;;2.80;99.90;;;;;;5012933;28;20069;-67
2023/01/03 08:06:22;;;;;;;179.90;36.58;;;3.00;99.90;;;;;;5007248;28;20046;-67
2023/01/03 08:13:16;;;;;;;275.42;41.30;;;2.90;99.90;;;;;;4996537;28;20077;-67
2023/01/03 08:14:19;;;;;;;189.48;38.70;;;3.10;99.90;;;;;;4994275;28;20115;-67
2023/01/03 08:16:44;;;;;;;175.65;38.65;;;3.30;99.90;;;;;;4992187;28;20460;-67
2023/01/03 08:19:10;;;;;;;191.75;39.60;;;3.40;99.90;;;;;;4994751;28;20029;-67
2023/01/03 08:21:36;;;;;;;226.65;42.33;;;3.30;99.90;;;;;;4993204;28;20122;-67
2023/01/03 08:24:01;;;;;;;164.65;38.33;;;3.50;99.90;;;;;;5010689;28;20081;-65
2023/01/03 08:26:27;;;;;;;199.95;41.97;;;3.50;99.90;;;;;;4983013;28;20084;-66
2023/01/03 08:28:53;;;;;;;201.27;42.45;;;3.60;99.90;;;;;;4990537;28;20045;-65
2023/01/03 08:31:21;;;;;;;201.80;41.22;;;3.70;99.90;;;;;;4989862;28;20044;-65
2023/01/03 08:33:52;;;;;;;215.88;43.70;;;3.70;99.90;;;;;;4992960;28;20049;-65
2023/01/03 08:36:18;;;;;;;173.27;41.30;;;3.80;99.90;;;;;;4990796;28;20041;-66
2023/01/03 08:39:01;;;;;;;169.90;42.15;;;3.80;99.90;;;;;;4993175;28;20050;-65
2023/01/03 08:41:28;;;;;;;;;;;3.90;99.90;;;;;;4991566;28;20069;-66
2023/01/03 08:43:56;;;;;;;195.48;42.35;;;3.90;99.90;;;;;;4991602;28;19925;-66
2023/01/03 08:46:22;;;;;;;241.25;45.13;;;3.90;99.90;;;;;;4980203;28;20053;-66
2023/01/03 08:48:47;;;;;;;194.02;44.25;;;4.00;99.90;;;;;;4992453;28;20396;-66
2023/01/03 08:51:13;;;;;;;290.25;50.65;;;4.10;99.90;;;;;;4991710;28;20038;-66
2023/01/03 08:53:39;;;;;;;209.63;44.65;;;4.30;99.90;;;;;;4989906;28;20053;-65
2023/01/03 08:56:05;;;;;;;211.55;45.45;;;4.30;99.90;;;;;;4992144;28;20081;-65
2023/01/03 08:58:31;;;;;;;194.95;43.78;;;4.20;99.90;;;;;;4987484;28;20043;-65
2023/01/03 09:01:01;;;;;;;238.80;48.03;;;4.40;99.90;;;;;;4990573;28;20046;-65
2023/01/03 09:03:27;;;;;;;205.38;46.28;;;4.30;99.90;;;;;;4992190;28;20512;-68
2023/01/03 09:05:52;;;;;;;292.55;51.22;;;4.50;99.90;;;;;;4990785;28;20129;-67
2023/01/03 09:08:18;;;;;;;253.90;49.92;;;4.40;99.90;;;;;;4992950;28;20444;-67
2023/01/03 09:10:45;;;;;;;206.60;47.40;;;4.50;99.90;;;;;;4986183;28;20042;-68
2023/01/03 09:13:10;;;;;;;254.00;51.70;;;4.60;99.90;;;;;;4989386;28;20073;-66
2023/01/03 09:15:36;;;;;;;266.75;52.92;;;4.50;99.90;;;;;;4970520;28;20037;-67
2023/01/03 09:18:01;;;;;;;254.23;52.88;;;4.60;99.90;;;;;;4988582;28;20461;-66
2023/01/03 09:20:27;;;;;;;216.35;49.97;;;4.60;99.90;;;;;;5007706;28;20041;-66
2023/01/03 09:22:52;;;;;;;250.68;51.25;;;4.60;99.90;;;;;;4990270;28;20534;-65
2023/01/03 09:25:18;;;;;;;276.25;53.35;;;4.80;99.90;;;;;;4999260;28;20042;-67
2023/01/03 09:27:45;;;;;;;320.08;57.53;;;4.70;99.90;;;;;;4992472;28;20393;-67
2023/01/03 09:30:12;;;;;;;265.80;53.53;;;4.70;99.90;;;;;;4992074;28;20045;-67
2023/01/03 09:32:38;;;;;;;260.20;54.88;;;4.70;99.90;;;;;;5002324;28;20042;-67
2023/01/03 09:35:03;;;;;;;229.20;52.88;;;4.70;99.90;;;;;;4990020;28;20382;-68
2023/01/03 09:37:29;;;;;;;235.70;54.42;;;4.70;99.90;;;;;;5004971;28;20076;-67
2023/01/03 09:39:55;;;;;;;221.07;52.85;;;4.90;99.90;;;;;;4987382;28;20060;-67
2023/01/03 09:45:14;;;;;;;229.10;53.83;;;4.90;99.90;;;;;;4987843;28;20088;-68
2023/01/03 09:47:41;;;;;;;287.65;56.40;;;4.80;99.90;;;;;;4985745;28;20065;-68
2023/01/03 09:50:17;;;;;;;228.27;53.70;;;4.90;99.90;;;;;;4988796;28;20026;-68
2023/01/03 10:04:52;;;;;;;261.08;53.20;;;5.20;99.90;;;;;;5006890;28;20077;-66
2023/01/03 10:07:51;;;;;;;247.77;52.80;;;5.50;99.90;;;;;;4986941;28;20446;-66
2023/01/03 10:10:25;;;;;;;276.98;55.05;;;5.50;99.90;;;;;;4989944;28;20132;-66
2023/01/03 10:13:16;;;;;;;205.77;50.78;;;5.50;99.90;;;;;;4988139;28;20514;-66
2023/01/03 10:15:58;;;;;;;221.82;49.83;;;5.60;99.90;;;;;;4995392;28;20049;-66
2023/01/03 10:18:50;;;;;;;224.60;49.60;;;5.60;99.90;;;;;;4991005;28;20410;-66
2023/01/03 10:21:35;;;;;;;178.70;46.78;;;5.70;99.90;;;;;;4969793;28;20248;-67
2023/01/03 10:24:01;;;;;;;184.65;47.95;;;5.70;99.90;;;;;;5008308;28;20050;-67
2023/01/03 10:26:30;;;;;;;188.05;46.47;;;5.70;99.90;;;;;;4993255;28;20116;-67
2023/01/03 10:28:56;;;;;;;167.43;44.88;;;5.60;99.90;;;;;;4992483;28;20412;-67
2023/01/03 10:31:27;;;;;;;170.77;45.05;;;5.70;99.90;;;;;;4991746;28;20052;-67
2023/01/03 10:33:53;;;;;;;173.40;45.45;;;5.70;99.90;;;;;;5004817;28;20042;-67
2023/01/03 10:36:20;;;;;;;167.10;42.97;;;5.80;99.90;;;;;;4989677;28;20048;-67
2023/01/03 10:38:46;;;;;;;154.73;40.97;;;5.80;99.90;;;;;;4992548;28;20049;-66
2023/01/03 10:41:42;;;;;;;136.30;39.67;;;5.90;99.90;;;;;;4993790;28;20054;-67
2023/01/03 10:44:22;;;;;;;129.75;38.42;;;6.00;99.90;;;;;;4976761;28;20420;-67
2023/01/03 10:46:52;;;;;;;125.22;38.63;;;5.90;99.90;;;;;;4990736;28;20100;-67
2023/01/03 10:49:23;;;;;;;141.93;39.05;;;6.00;99.90;;;;;;4996752;28;20543;-66
2023/01/03 10:52:15;;;;;;;132.67;42.57;;;6.00;99.90;;;;;;4991787;28;20045;-66
2023/01/03 10:54:52;;;;;;;139.07;37.70;;;5.90;99.90;;;;;;5010639;28;20132;-68
2023/01/03 10:57:37;;;;;;;139.38;38.88;;;6.10;99.90;;;;;;4992346;28;20046;-67
2023/01/03 11:00:28;;;;;;;120.60;36.50;;;6.00;99.90;;;;;;4992648;28;20042;-67
2023/01/03 11:03:00;;;;;;;124.18;36.72;;;6.10;99.90;;;;;;4998574;28;20120;-67
2023/01/03 11:05:26;;;;;;;114.47;35.58;;;6.20;99.90;;;;;;4995325;28;20125;-66
2023/01/03 11:08:00;;;;;;;119.22;35.75;;;6.20;99.90;;;;;;4992573;28;20451;-67
2023/01/03 11:10:38;;;;;;;121.85;34.97;;;6.20;99.90;;;;;;4992397;28;20042;-66
2023/01/03 11:13:23;;;;;;;103.30;33.45;;;6.30;99.90;;;;;;4992883;28;20041;-67
2023/01/03 11:15:54;;;;;;;113.82;34.38;;;6.30;99.90;;;;;;4975490;28;20080;-66
2023/01/03 11:18:20;;;;;;;109.97;34.25;;;6.20;99.90;;;;;;4991724;28;20117;-66
2023/01/03 11:20:53;;;;;;;98.55;31.90;;;6.30;99.90;;;;;;4994119;28;20042;-66
2023/01/03 11:23:37;;;;;;;104.78;31.52;;;6.20;99.90;;;;;;4991375;28;20071;-66
2023/01/03 11:26:21;;;;;;;104.78;31.92;;;6.30;99.90;;;;;;4991453;28;20038;-67
2023/01/03 11:29:09;;;;;;;101.82;31.52;;;6.40;99.90;;;;;;4993404;28;20043;-68
2023/01/03 11:31:58;;;;;;;100.53;31.23;;;6.40;99.90;;;;;;4990691;28;20049;-67
2023/01/03 11:35:01;;;;;;;96.18;31.15;;;6.40;99.90;;;;;;4992023;28;20037;-67
2023/01/03 11:37:43;;;;;;;88.15;29.58;;;6.40;99.90;;;;;;5004788;28;20113;-66
2023/01/03 11:40:38;;;;;;;86.95;30.15;;;6.30;99.90;;;;;;4990811;28;20088;-66
2023/01/03 11:43:13;;;;;;;99.13;32.08;;;6.50;99.90;;;;;;4987170;28;20471;-68
2023/01/03 11:45:45;;;;;;;97.43;31.08;;;6.50;99.90;;;;;;4983029;28;20042;-67
2023/01/03 11:48:36;;;;;;;99.85;30.27;;;6.50;99.90;;;;;;4983751;28;20042;-66
2023/01/03 11:51:16;;;;;;;99.53;31.15;;;6.60;99.90;;;;;;4990826;28;20077;-66
2023/01/03 11:54:06;;;;;;;100.68;30.02;;;6.60;99.90;;;;;;4987176;28;20089;-67
2023/01/03 11:56:46;;;;;;;90.47;29.35;;;6.70;99.90;;;;;;4987357;28;20046;-66
2023/01/03 11:59:36;;;;;;;84.55;27.95;;;6.70;99.90;;;;;;4987373;28;20050;-68
2023/01/03 12:02:17;;;;;;;89.35;28.95;;;6.70;99.90;;;;;;5002409;28;20054;-66
2023/01/03 12:05:27;;;;;;;91.18;29.77;;;6.60;99.90;;;;;;4988019;28;20057;-66
2023/01/03 12:08:09;;;;;;;98.85;27.80;;;6.60;99.90;;;;;;4964135;28;20096;-67
2023/01/03 12:10:40;;;;;;;100.35;28.70;;;6.50;99.90;;;;;;4984059;28;20046;-66
2023/01/03 12:13:55;;;;;;;88.10;27.42;;;6.50;99.90;;;;;;4986713;28;20046;-66
2023/01/03 12:16:31;;;;;;;83.25;27.13;;;6.60;99.90;;;;;;4977650;28;20042;-66
2023/01/03 12:19:04;;;;;;;103.25;31.50;;;6.50;99.90;;;;;;4995326;28;20492;-68
2023/01/03 12:21:54;;;;;;;97.95;28.92;;;6.50;99.90;;;;;;4983562;28;20597;-67
2023/01/03 12:24:25;;;;;;;92.90;27.73;;;6.60;99.90;;;;;;4992361;28;20129;-69
2023/01/03 12:26:55;;;;;;;101.30;27.65;;;6.50;99.90;;;;;;4985922;28;20397;-68
2023/01/03 12:29:35;;;;;;;86.63;27.98;;;6.70;99.90;;;;;;4986927;28;20377;-70
2023/01/03 12:32:30;;;;;;;87.55;27.67;;;6.70;99.90;;;;;;4985607;28;20087;-68
2023/01/03 12:35:26;;;;;;;96.25;27.95;;;6.70;99.90;;;;;;4986464;28;20502;-68
2023/01/03 12:37:53;;;;;;;92.43;28.23;;;6.60;99.90;;;;;;4988854;28;20050;-68
2023/01/03 12:40:30;;;;;;;96.60;27.85;;;6.70;99.90;;;;;;5006338;28;20740;-67
2023/01/03 12:43:15;;;;;;;92.70;28.73;;;6.70;99.90;;;;;;4980133;28;20400;-68
2023/01/03 12:45:41;;;;;;;98.43;29.50;;;6.70;99.90;;;;;;5005824;28;20080;-67
2023/01/03 12:48:16;;;;;;;95.97;29.48;;;6.60;99.90;;;;;;4989803;28;20068;-68
2023/01/03 12:50:47;;;;;;;89.90;28.02;;;6.70;99.90;;;;;;4988951;28;20408;-66
2023/01/03 12:53:37;;;;;;;90.85;28.23;;;6.60;99.90;;;;;;4986469;28;20030;-67
2023/01/03 12:56:06;;;;;;;93.07;29.55;;;6.80;99.90;;;;;;4984357;28;20129;-66
2023/01/03 12:59:05;;;;;;;84.07;26.90;;;6.70;99.90;;;;;;4967389;28;20400;-66
2023/01/03 13:01:56;;;;;;;99.97;28.85;;;6.70;99.90;;;;;;4982632;28;20053;-65
2023/01/03 13:04:31;;;;;;;103.05;29.25;;;6.80;99.90;;;;;;4990875;28;20129;-66
2023/01/03 13:07:15;;;;;;;83.43;27.75;;;6.90;99.90;;;;;;5003155;28;20566;-66
2023/01/03 13:09:50;;;;;;;92.47;28.10;;;6.90;99.90;;;;;;4987577;28;20033;-65
2023/01/03 13:12:20;;;;;;;92.90;28.08;;;7.00;99.90;;;;;;4985673;28;20500;-66
2023/01/03 13:15:17;;;;;;;80.40;26.70;;;7.10;99.90;;;;;;4984508;28;20120;-66
2023/01/03 13:17:45;;;;;;;82.78;25.52;;;7.10;99.90;;;;;;4998304;28;20066;-66
2023/01/03 13:20:32;;;;;;;72.68;24.30;;;7.10;99.90;;;;;;4986689;28;20327;-68
2023/01/03 13:23:00;;;;;;;84.57;25.05;;;7.10;99.90;;;;;;4986136;28;20052;-66
2023/01/03 13:25:25;;;;;;;70.93;24.13;;;7.20;99.90;;;;;;4990117;28;20519;-66
2023/01/03 13:27:52;;;;;;;74.10;24.45;;;7.20;99.90;;;;;;4984695;28;20246;-65
2023/01/03 13:30:24;;;;;;;69.88;23.80;;;7.10;99.90;;;;;;4982487;28;20489;-66
2023/01/03 13:33:11;;;;;;;67.43;22.37;;;7.10;99.90;;;;;;5001089;28;20038;-66
2023/01/03 13:35:45;;;;;;;67.82;23.13;;;7.10;99.90;;;;;;5003322;28;20117;-65
2023/01/03 13:38:18;;;;;;;66.18;22.73;;;7.10;99.90;;;;;;4986129;28;20369;-65
2023/01/03 13:40:45;;;;;;;;;;;7.10;99.90;;;;;;4986336;28;20508;-67
2023/01/03 13:43:13;;;;;;;55.40;20.95;;;7.10;99.90;;;;;;4983373;28;19952;-65
2023/01/03 13:45:42;;;;;;;62.97;21.55;;;7.20;99.90;;;;;;4986372;28;20074;-68
2023/01/03 13:48:21;;;;;;;61.05;20.92;;;7.10;99.90;;;;;;4986979;28;20359;-70
2023/01/03 13:51:25;;;;;;;53.20;20.38;;;7.10;99.90;;;;;;4988156;28;20096;-67
2023/01/03 13:54:01;;;;;;;60.17;19.90;;;7.10;99.90;;;;;;4984880;28;20038;-67
2023/01/03 13:56:51;;;;;;;62.08;20.02;;;7.20;99.90;;;;;;4985924;28;20092;-67